Gene Autry, Oklahoma
Current Conditions -  °F | °C
As of 3:55 PM on Sunday 28 Dec 2014 (Local Time) from KADM Reporting Station
Clear Clear  
Wind Chill: 46°   Ceiling: Unl
Heat Index: 46°   Visibility: 10mi
Dew Point: 25°   Wind: 0mph
Humidity: 43%   Direction: NA
Pressure: 30.13"   Gusts: NA
Location:  34.28°N, 97.04°W
Report Text: KADM 282155Z 00000KT 10SM SKC 08/M04 A3013
Loading
Personal Weather Stations






























Interactive Weather Map New forecast layout! Learn more

10-Day Weather Forecast

Advertisements
Track Severe Weather on mobile